createdAt,value
2022-10-07T00:00:54.270Z,1.50
2022-10-07T00:03:22.605Z,1.50
2022-10-07T00:06:11.066Z,1.80
2022-10-07T00:08:38.969Z,1.75
2022-10-07T00:11:08.486Z,1.65
2022-10-07T00:13:38.919Z,1.73
2022-10-07T00:16:11.770Z,1.60
2022-10-07T00:18:39.322Z,1.50
2022-10-07T00:21:12.066Z,1.80
2022-10-07T00:26:29.892Z,1.45
2022-10-07T00:28:57.961Z,2.00
2022-10-07T00:31:27.298Z,1.67
2022-10-07T00:33:55.230Z,1.35
2022-10-07T00:36:24.772Z,1.45
2022-10-07T00:39:17.175Z,1.75
2022-10-07T00:41:52.629Z,1.50
2022-10-07T00:44:31.296Z,1.65
2022-10-07T00:47:04.403Z,1.80
2022-10-07T00:49:47.256Z,1.73
2022-10-07T00:52:15.060Z,1.52
2022-10-07T00:54:42.538Z,1.50
2022-10-07T00:57:09.741Z,1.38
2022-10-07T00:59:39.154Z,1.48
2022-10-07T01:02:07.511Z,1.42
2022-10-07T01:04:34.378Z,1.30
2022-10-07T01:07:01.221Z,1.70
2022-10-07T01:09:27.975Z,1.30
2022-10-07T01:11:57.464Z,1.58
2022-10-07T01:14:42.245Z,1.27
2022-10-07T01:17:30.958Z,1.83
2022-10-07T01:20:18.805Z,1.60
2022-10-07T01:23:05.252Z,1.60
2022-10-07T01:25:55.509Z,1.60
2022-10-07T01:28:34.405Z,1.50
2022-10-07T01:31:05.326Z,1.50
2022-10-07T01:33:33.518Z,1.38
2022-10-07T01:36:09.770Z,1.42
2022-10-07T01:38:39.973Z,1.58
2022-10-07T01:41:12.320Z,1.50
2022-10-07T01:43:39.497Z,1.25
2022-10-07T01:46:09.916Z,2.08
2022-10-07T01:48:36.726Z,1.70
2022-10-07T01:51:03.657Z,1.55
2022-10-07T01:54:02.380Z,2.10
2022-10-07T01:56:41.860Z,1.52
2022-10-07T01:59:16.311Z,1.40
2022-10-07T02:01:53.381Z,1.60
2022-10-07T02:04:23.142Z,1.65
2022-10-07T02:06:57.119Z,1.27
2022-10-07T02:09:41.727Z,1.70
2022-10-07T02:12:18.450Z,1.50
2022-10-07T02:14:55.025Z,1.17
2022-10-07T02:17:21.951Z,1.75
2022-10-07T02:19:53.458Z,1.60
2022-10-07T02:22:23.147Z,1.95
2022-10-07T02:24:54.443Z,1.55
2022-10-07T02:27:28.106Z,1.85
2022-10-07T02:29:58.198Z,1.35
2022-10-07T02:32:26.956Z,1.75
2022-10-07T02:34:57.823Z,1.77
2022-10-07T02:37:27.736Z,2.35
2022-10-07T02:39:55.485Z,1.63
2022-10-07T02:42:27.978Z,1.73
2022-10-07T02:45:13.409Z,1.83
2022-10-07T02:47:47.011Z,1.80
2022-10-07T02:50:21.850Z,1.77
2022-10-07T02:52:49.880Z,1.83
2022-10-07T02:55:18.319Z,2.13
2022-10-07T02:57:47.965Z,2.00
2022-10-07T03:00:15.861Z,2.70
2022-10-07T03:02:55.495Z,1.67
2022-10-07T03:05:24.234Z,1.58
2022-10-07T03:08:02.342Z,1.88
2022-10-07T03:10:29.115Z,1.58
2022-10-07T03:12:56.257Z,1.52
2022-10-07T03:15:24.065Z,1.52
2022-10-07T03:17:51.072Z,1.70
2022-10-07T03:20:18.374Z,1.58
2022-10-07T03:22:45.292Z,1.35
2022-10-07T03:25:12.751Z,1.80
2022-10-07T03:27:39.853Z,1.52
2022-10-07T03:30:07.750Z,1.65
2022-10-07T03:32:34.598Z,1.50
2022-10-07T03:35:01.404Z,1.48
2022-10-07T03:37:30.100Z,1.90
2022-10-07T03:39:56.849Z,1.52
2022-10-07T03:42:24.117Z,1.50
2022-10-07T03:44:51.065Z,1.88
2022-10-07T03:47:17.870Z,2.05
2022-10-07T03:49:45.163Z,1.48
2022-10-07T03:52:12.228Z,1.60
2022-10-07T03:54:39.087Z,1.95
2022-10-07T03:57:28.531Z,1.92
2022-10-07T03:59:55.362Z,2.00
2022-10-07T04:02:23.433Z,2.00
2022-10-07T04:04:53.303Z,1.85
2022-10-07T04:07:22.105Z,2.17
2022-10-07T04:09:49.177Z,1.80
2022-10-07T04:12:15.938Z,1.95
2022-10-07T04:14:42.788Z,1.77
2022-10-07T04:17:09.898Z,1.98
2022-10-07T04:19:36.701Z,2.05
2022-10-07T04:22:08.492Z,1.88
2022-10-07T04:24:35.945Z,1.95
2022-10-07T04:27:05.122Z,2.50
2022-10-07T04:29:38.103Z,2.00
2022-10-07T04:32:05.817Z,1.90
2022-10-07T04:34:32.591Z,1.70
2022-10-07T04:37:00.987Z,1.88
2022-10-07T04:39:48.922Z,1.90
2022-10-07T04:42:34.753Z,2.05
2022-10-07T04:45:01.718Z,2.15
2022-10-07T04:47:28.451Z,2.15
2022-10-07T04:49:55.284Z,2.50
2022-10-07T04:52:22.131Z,2.42
2022-10-07T04:54:49.160Z,2.67
2022-10-07T04:57:15.938Z,2.40
2022-10-07T04:59:43.258Z,2.50
2022-10-07T05:02:10.187Z,3.70
2022-10-07T05:04:37.116Z,4.60
2022-10-07T05:07:04.770Z,4.78
2022-10-07T05:09:31.599Z,4.70
2022-10-07T05:11:58.364Z,4.35
2022-10-07T05:14:25.633Z,4.95
2022-10-07T05:16:52.649Z,5.22
2022-10-07T05:19:20.084Z,5.22
2022-10-07T05:21:46.963Z,5.63
2022-10-07T05:24:13.706Z,5.50
2022-10-07T05:26:40.544Z,5.65
2022-10-07T05:29:07.313Z,6.70
2022-10-07T05:31:34.128Z,5.90
2022-10-07T05:34:01.315Z,5.30
2022-10-07T05:36:28.175Z,5.20
2022-10-07T05:38:58.248Z,6.05
2022-10-07T05:41:25.755Z,5.90
2022-10-07T05:43:52.491Z,6.55
2022-10-07T05:46:20.604Z,5.60
2022-10-07T05:48:48.866Z,6.18
2022-10-07T05:51:15.816Z,6.55
2022-10-07T05:53:43.039Z,6.00
2022-10-07T05:56:12.142Z,6.32
2022-10-07T05:58:39.036Z,6.07
2022-10-07T06:01:12.925Z,5.97
2022-10-07T06:03:41.130Z,6.13
2022-10-07T06:06:09.007Z,5.90
2022-10-07T06:08:36.722Z,6.50
2022-10-07T06:11:23.678Z,6.40
2022-10-07T06:13:52.004Z,6.32
2022-10-07T06:16:18.801Z,5.85
2022-10-07T06:18:47.010Z,6.78
2022-10-07T06:21:13.919Z,5.88
2022-10-07T06:23:40.743Z,5.25
2022-10-07T06:26:09.163Z,5.93
2022-10-07T06:28:38.472Z,5.80
2022-10-07T06:31:07.358Z,6.15
2022-10-07T06:33:34.307Z,5.22
2022-10-07T06:36:06.063Z,5.70
2022-10-07T06:38:33.312Z,6.28
2022-10-07T06:41:04.906Z,6.85
2022-10-07T06:43:33.814Z,7.03
2022-10-07T06:46:02.607Z,5.78
2022-10-07T06:48:30.509Z,6.40
2022-10-07T06:51:00.588Z,6.72
2022-10-07T06:53:27.424Z,5.95
2022-10-07T06:55:54.763Z,6.57
2022-10-07T06:58:22.479Z,6.55
2022-10-07T07:00:50.861Z,6.13
2022-10-07T07:03:18.030Z,5.72
2022-10-07T07:05:45.898Z,6.63
2022-10-07T07:08:17.370Z,6.78
2022-10-07T07:10:44.734Z,6.80
2022-10-07T07:13:12.252Z,6.40
2022-10-07T07:15:39.670Z,6.25
2022-10-07T07:18:08.698Z,5.93
2022-10-07T07:20:39.241Z,6.18
2022-10-07T07:23:10.032Z,6.35
2022-10-07T07:25:44.237Z,6.10
2022-10-07T07:28:11.983Z,5.78
2022-10-07T07:30:40.186Z,6.03
2022-10-07T07:33:07.141Z,5.20
2022-10-07T07:35:38.206Z,5.63
2022-10-07T07:38:04.998Z,5.55
2022-10-07T07:40:31.787Z,5.47
2022-10-07T07:42:58.531Z,4.97
2022-10-07T07:45:25.357Z,5.20
2022-10-07T07:47:52.905Z,5.20
2022-10-07T07:50:22.219Z,5.18
2022-10-07T07:52:50.326Z,4.53
2022-10-07T07:55:21.419Z,4.32
2022-10-07T07:57:48.949Z,4.70
2022-10-07T08:00:16.278Z,4.10
2022-10-07T08:02:43.519Z,4.30
2022-10-07T08:05:10.508Z,4.85
2022-10-07T08:07:38.437Z,4.65
2022-10-07T08:10:05.775Z,4.05
2022-10-07T08:12:32.894Z,4.63
2022-10-07T08:14:59.691Z,3.67
2022-10-07T08:17:26.438Z,3.45
2022-10-07T08:19:56.194Z,4.20
2022-10-07T08:22:23.031Z,3.47
2022-10-07T08:24:49.898Z,4.07
2022-10-07T08:27:16.671Z,4.00
2022-10-07T08:29:43.431Z,3.90
2022-10-07T08:32:10.274Z,4.10
2022-10-07T08:34:37.267Z,5.03
2022-10-07T08:37:04.217Z,4.22
2022-10-07T08:39:31.279Z,3.97
2022-10-07T08:42:27.995Z,4.20
2022-10-07T08:44:55.546Z,4.00
2022-10-07T08:47:34.748Z,3.92
2022-10-07T08:50:31.177Z,4.30
2022-10-07T08:53:08.457Z,3.83
2022-10-07T08:55:42.512Z,4.13
2022-10-07T08:58:44.061Z,3.92
2022-10-07T09:01:24.485Z,3.80
2022-10-07T09:04:03.195Z,4.03
2022-10-07T09:06:46.453Z,3.20
2022-10-07T09:09:17.897Z,3.90
2022-10-07T09:11:47.080Z,3.75
2022-10-07T09:14:33.475Z,3.67
2022-10-07T09:17:20.141Z,3.65
2022-10-07T09:19:55.185Z,3.70
2022-10-07T09:22:30.821Z,3.83
2022-10-07T09:25:19.704Z,3.67
2022-10-07T09:27:46.759Z,4.13
2022-10-07T09:30:14.552Z,4.57
2022-10-07T09:32:47.022Z,4.50
2022-10-07T09:35:18.783Z,4.22
2022-10-07T09:38:02.390Z,3.95
2022-10-07T09:41:03.648Z,4.72
2022-10-07T09:43:32.516Z,3.67
2022-10-07T09:46:00.901Z,3.47
2022-10-07T09:48:33.742Z,3.85
2022-10-07T09:51:15.386Z,3.90
2022-10-07T09:54:03.844Z,4.00
2022-10-07T09:56:40.174Z,4.40
2022-10-07T09:59:40.532Z,3.42
2022-10-07T10:02:13.807Z,3.47
2022-10-07T10:04:57.529Z,4.05
2022-10-07T10:07:26.861Z,3.33
2022-10-07T10:10:00.417Z,4.10
2022-10-07T10:12:27.382Z,3.97
2022-10-07T10:14:56.329Z,3.55
2022-10-07T10:17:39.677Z,3.92
2022-10-07T10:20:27.120Z,3.90
2022-10-07T10:22:54.024Z,3.83
2022-10-07T10:26:04.565Z,3.50
2022-10-07T10:28:40.127Z,3.80
2022-10-07T10:31:35.824Z,3.47
2022-10-07T10:34:16.093Z,4.32
2022-10-07T10:36:45.806Z,3.95
2022-10-07T10:39:27.587Z,4.43
2022-10-07T10:42:01.113Z,3.97
2022-10-07T10:45:00.025Z,3.65
2022-10-07T10:47:46.812Z,3.33
2022-10-07T10:50:24.418Z,3.88
2022-10-07T10:53:09.336Z,3.95
2022-10-07T10:58:24.837Z,3.13
2022-10-07T11:01:19.216Z,3.15
2022-10-07T11:04:11.246Z,3.30
2022-10-07T11:06:40.293Z,3.20
2022-10-07T11:09:15.530Z,3.63
2022-10-07T11:11:43.350Z,3.30
2022-10-07T11:14:17.650Z,3.53
2022-10-07T11:16:48.550Z,3.10
2022-10-07T11:19:31.383Z,3.05
2022-10-07T11:21:59.955Z,3.50
2022-10-07T11:24:43.234Z,3.58
2022-10-07T11:27:30.646Z,4.18
2022-10-07T11:30:02.936Z,3.83
2022-10-07T11:32:49.707Z,3.22
2022-10-07T11:35:25.690Z,3.15
2022-10-07T11:38:14.643Z,3.42
2022-10-07T11:40:54.062Z,3.60
2022-10-07T11:43:46.533Z,3.08
2022-10-07T11:46:36.136Z,3.40
2022-10-07T11:49:32.460Z,3.33
2022-10-07T11:52:02.063Z,3.15
2022-10-07T11:54:39.232Z,3.40
2022-10-07T11:57:06.063Z,3.75
2022-10-07T11:59:48.939Z,3.60
2022-10-07T12:02:28.072Z,3.85
2022-10-07T12:04:56.061Z,3.47
2022-10-07T12:07:35.051Z,3.70
2022-10-07T12:10:04.948Z,4.20
2022-10-07T12:12:47.410Z,3.80
2022-10-07T12:15:43.756Z,4.10
2022-10-07T12:18:10.543Z,3.83
2022-10-07T12:20:48.143Z,3.95
2022-10-07T12:23:22.035Z,4.70
2022-10-07T12:25:56.124Z,3.80
2022-10-07T12:28:35.013Z,3.75
2022-10-07T12:31:04.449Z,3.75
2022-10-07T12:33:46.505Z,3.72
2022-10-07T12:36:22.235Z,3.47
2022-10-07T12:39:00.962Z,3.50
2022-10-07T12:41:34.496Z,3.33
2022-10-07T12:44:12.655Z,3.50
2022-10-07T12:50:05.596Z,3.70
2022-10-07T12:52:33.311Z,4.35
2022-10-07T12:55:08.601Z,4.93
2022-10-07T12:57:39.899Z,4.25
2022-10-07T13:00:20.109Z,4.78
2022-10-07T13:03:27.265Z,4.07
2022-10-07T13:06:24.069Z,3.72
2022-10-07T13:09:16.342Z,4.32
2022-10-07T13:16:34.048Z,4.32
2022-10-07T13:19:19.447Z,3.80
2022-10-07T13:21:58.293Z,3.80
2022-10-07T13:24:26.846Z,4.82
2022-10-07T13:26:53.695Z,4.00
2022-10-07T13:29:30.800Z,4.70
2022-10-07T13:32:10.088Z,4.10
2022-10-07T13:34:37.229Z,4.05
2022-10-07T13:37:35.333Z,4.10
2022-10-07T13:40:35.138Z,4.18
2022-10-07T13:43:04.101Z,4.03
2022-10-07T13:45:33.870Z,4.00
2022-10-07T13:48:00.744Z,3.80
2022-10-07T13:50:32.448Z,3.95
2022-10-07T13:52:59.246Z,4.13
2022-10-07T13:55:25.989Z,3.55
2022-10-07T13:57:57.185Z,3.50
2022-10-07T14:00:25.173Z,3.30
2022-10-07T14:02:52.613Z,3.30
2022-10-07T14:05:28.422Z,3.30
2022-10-07T14:08:16.249Z,4.00
2022-10-07T14:11:16.991Z,4.07
2022-10-07T14:13:44.134Z,4.10
2022-10-07T14:16:19.346Z,4.07
2022-10-07T14:18:47.491Z,4.13
2022-10-07T14:21:17.179Z,3.83
2022-10-07T14:23:46.819Z,3.63
2022-10-07T14:26:18.093Z,3.60
2022-10-07T14:28:45.126Z,4.07
2022-10-07T14:31:38.716Z,4.80
2022-10-07T14:34:35.150Z,4.38
2022-10-07T14:37:13.760Z,4.32
2022-10-07T14:39:47.879Z,4.13
2022-10-07T14:42:22.780Z,4.30
2022-10-07T14:44:50.396Z,4.18
2022-10-07T14:47:20.887Z,4.28
2022-10-07T14:49:48.495Z,4.55
2022-10-07T14:52:28.355Z,4.75
2022-10-07T14:55:03.202Z,5.40
2022-10-07T14:57:30.199Z,4.90
2022-10-07T14:59:57.108Z,4.60
2022-10-07T15:02:23.926Z,4.40
2022-10-07T15:04:50.826Z,4.65
2022-10-07T15:07:18.195Z,4.43
2022-10-07T15:09:46.722Z,4.38
2022-10-07T15:12:15.240Z,4.35
2022-10-07T15:14:42.712Z,4.53
2022-10-07T15:17:14.218Z,4.10
2022-10-07T15:19:41.328Z,4.10
2022-10-07T15:22:08.270Z,4.40
2022-10-07T15:24:35.375Z,4.50
2022-10-07T15:27:02.529Z,4.32
2022-10-07T15:29:29.276Z,4.10
2022-10-07T15:31:56.038Z,4.22
2022-10-07T15:34:22.860Z,4.15
2022-10-07T15:36:50.245Z,4.45
2022-10-07T15:39:17.176Z,4.35
2022-10-07T15:41:44.458Z,3.90
2022-10-07T15:44:16.059Z,4.30
2022-10-07T15:46:43.925Z,3.47
2022-10-07T15:49:10.805Z,3.90
2022-10-07T15:51:38.157Z,3.72
2022-10-07T15:54:05.963Z,4.45
2022-10-07T15:56:33.546Z,3.63
2022-10-07T15:59:02.056Z,3.72
2022-10-07T16:01:31.955Z,3.60
2022-10-07T16:04:00.592Z,4.05
2022-10-07T16:06:33.075Z,3.67
2022-10-07T16:09:00.797Z,3.97
2022-10-07T16:11:29.281Z,3.78
2022-10-07T16:13:56.334Z,3.80
2022-10-07T16:16:25.724Z,4.13
2022-10-07T16:18:54.504Z,4.05
2022-10-07T16:21:29.162Z,3.88
2022-10-07T16:24:04.682Z,3.88
2022-10-07T16:26:33.866Z,3.85
2022-10-07T16:29:20.082Z,3.95
2022-10-07T16:31:47.508Z,4.05
2022-10-07T16:34:15.612Z,4.00
2022-10-07T16:36:45.844Z,4.18
2022-10-07T16:39:13.402Z,4.07
2022-10-07T16:41:42.906Z,4.35
2022-10-07T16:44:10.212Z,4.57
2022-10-07T16:46:37.489Z,4.55
2022-10-07T16:49:05.992Z,4.85
2022-10-07T16:51:36.262Z,4.38
2022-10-07T16:54:06.021Z,4.53
2022-10-07T16:56:34.804Z,4.10
2022-10-07T16:59:05.097Z,4.60
2022-10-07T17:01:32.772Z,4.40
2022-10-07T17:04:00.794Z,5.60
2022-10-07T17:06:29.467Z,5.22
2022-10-07T17:08:59.613Z,4.93
2022-10-07T17:11:29.195Z,5.22
2022-10-07T17:14:00.551Z,5.72
2022-10-07T17:16:29.355Z,5.50
2022-10-07T17:18:56.448Z,5.60
2022-10-07T17:21:23.615Z,6.18
2022-10-07T17:23:50.854Z,5.78
2022-10-07T17:26:20.097Z,5.82
2022-10-07T17:28:49.855Z,5.95
2022-10-07T17:31:18.423Z,5.13
2022-10-07T17:33:46.410Z,5.57
2022-10-07T17:36:13.644Z,5.95
2022-10-07T17:38:44.931Z,5.80
2022-10-07T17:41:33.920Z,6.40
2022-10-07T17:44:03.920Z,6.53
2022-10-07T17:46:33.364Z,6.32
2022-10-07T17:49:02.265Z,6.10
2022-10-07T17:51:31.386Z,6.75
2022-10-07T17:53:59.999Z,6.55
2022-10-07T17:56:28.177Z,6.57
2022-10-07T17:58:55.878Z,6.80
2022-10-07T18:01:27.145Z,6.43
2022-10-07T18:03:58.840Z,6.35
2022-10-07T18:06:28.117Z,5.80
2022-10-07T18:08:54.974Z,6.53
2022-10-07T18:11:22.290Z,6.65
2022-10-07T18:14:07.796Z,7.30
2022-10-07T18:16:35.624Z,6.22
2022-10-07T18:19:02.874Z,6.45
2022-10-07T18:21:31.366Z,6.72
2022-10-07T18:23:58.918Z,5.97
2022-10-07T18:26:25.709Z,6.60
2022-10-07T18:28:52.832Z,5.90
2022-10-07T18:31:20.034Z,6.72
2022-10-07T18:33:46.944Z,5.85
2022-10-07T18:36:16.337Z,6.10
2022-10-07T18:38:44.389Z,6.43
2022-10-07T18:41:14.219Z,6.43
2022-10-07T18:44:26.262Z,6.60
2022-10-07T18:46:53.385Z,6.35
2022-10-07T18:49:20.202Z,6.55
2022-10-07T18:51:47.277Z,6.57
2022-10-07T18:54:14.450Z,6.68
2022-10-07T18:56:41.758Z,6.53
2022-10-07T18:59:09.829Z,5.93
2022-10-07T19:01:37.557Z,6.80
2022-10-07T19:04:06.589Z,6.15
2022-10-07T19:06:36.143Z,6.60
2022-10-07T19:09:07.748Z,6.63
2022-10-07T19:11:34.980Z,7.22
2022-10-07T19:14:02.144Z,7.07
2022-10-07T19:16:58.424Z,6.45
2022-10-07T19:19:25.325Z,7.25
2022-10-07T19:21:54.482Z,6.40
2022-10-07T19:24:41.944Z,6.57
2022-10-07T19:27:08.940Z,6.75
2022-10-07T19:29:35.801Z,6.28
2022-10-07T19:32:07.842Z,6.60
2022-10-07T19:34:35.422Z,6.65
2022-10-07T19:37:02.208Z,6.93
2022-10-07T19:39:28.959Z,6.80
2022-10-07T19:41:58.823Z,6.75
2022-10-07T19:44:25.783Z,6.53
2022-10-07T19:46:54.313Z,6.85
2022-10-07T19:49:21.303Z,6.40
2022-10-07T19:51:48.079Z,6.68
2022-10-07T19:54:14.848Z,6.57
2022-10-07T19:56:41.810Z,6.78
2022-10-07T19:59:11.587Z,6.75
2022-10-07T20:01:41.982Z,6.38
2022-10-07T20:04:14.486Z,6.50
2022-10-07T20:06:42.301Z,7.15
2022-10-07T20:09:11.539Z,6.60
2022-10-07T20:11:38.390Z,5.80
2022-10-07T20:14:05.948Z,6.10
2022-10-07T20:16:34.232Z,6.03
2022-10-07T20:19:05.349Z,5.60
2022-10-07T20:21:36.587Z,5.63
2022-10-07T20:24:04.203Z,5.78
2022-10-07T20:26:33.238Z,5.85
2022-10-07T20:29:01.799Z,5.63
2022-10-07T20:31:34.772Z,5.95
2022-10-07T20:34:02.682Z,5.20
2022-10-07T20:36:32.411Z,4.68
2022-10-07T20:39:26.637Z,5.00
2022-10-07T20:42:12.461Z,5.35
2022-10-07T20:44:39.713Z,4.55
2022-10-07T20:47:08.465Z,5.13
2022-10-07T20:49:37.341Z,4.72
2022-10-07T20:52:08.982Z,4.35
2022-10-07T20:54:35.739Z,4.57
2022-10-07T20:57:02.523Z,4.18
2022-10-07T20:59:30.652Z,4.78
2022-10-07T21:01:58.305Z,4.80
2022-10-07T21:04:27.231Z,4.10
2022-10-07T21:06:55.111Z,5.07
2022-10-07T21:09:21.881Z,4.68
2022-10-07T21:11:48.761Z,4.30
2022-10-07T21:14:17.306Z,4.35
2022-10-07T21:16:44.966Z,5.05
2022-10-07T21:19:12.053Z,4.90
2022-10-07T21:21:39.298Z,4.43
2022-10-07T21:24:07.220Z,4.07
2022-10-07T21:26:35.341Z,4.03
2022-10-07T21:29:04.131Z,4.10
2022-10-07T21:31:31.441Z,4.18
2022-10-07T21:34:01.501Z,3.97
2022-10-07T21:36:28.448Z,3.85
2022-10-07T21:38:58.195Z,4.03
2022-10-07T21:41:27.230Z,3.60
2022-10-07T21:43:55.581Z,4.28
2022-10-07T21:46:23.463Z,4.00
2022-10-07T21:48:50.415Z,3.67
2022-10-07T21:51:17.344Z,3.65
2022-10-07T21:53:45.796Z,4.03
2022-10-07T21:56:13.508Z,4.25
2022-10-07T21:58:40.275Z,3.83
2022-10-07T22:01:10.570Z,3.85
2022-10-07T22:03:37.322Z,4.38
2022-10-07T22:06:06.252Z,4.45
2022-10-07T22:08:36.831Z,4.45
2022-10-07T22:11:17.415Z,4.30
2022-10-07T22:13:55.063Z,4.13
2022-10-07T22:16:22.989Z,4.15
2022-10-07T22:18:51.466Z,4.18
2022-10-07T22:21:22.124Z,3.97
2022-10-07T22:23:53.795Z,4.00
2022-10-07T22:26:23.338Z,3.58
2022-10-07T22:28:50.952Z,4.07
2022-10-07T22:31:18.630Z,3.92
2022-10-07T22:33:59.600Z,4.38
2022-10-07T22:36:29.023Z,4.03
2022-10-07T22:38:57.028Z,3.90
2022-10-07T22:41:24.479Z,4.63
2022-10-07T22:43:52.783Z,4.45
2022-10-07T22:46:26.817Z,4.53
2022-10-07T22:48:58.121Z,4.40
2022-10-07T22:51:28.301Z,4.20
2022-10-07T22:53:56.100Z,3.72
2022-10-07T22:56:24.559Z,4.60
2022-10-07T22:58:58.115Z,4.00
2022-10-07T23:01:26.040Z,3.53
2022-10-07T23:03:52.997Z,3.60
2022-10-07T23:06:20.032Z,3.70
2022-10-07T23:08:47.649Z,3.92
2022-10-07T23:11:17.606Z,4.30
2022-10-07T23:13:45.744Z,3.83
2022-10-07T23:16:15.583Z,4.25
2022-10-07T23:18:46.411Z,4.82
2022-10-07T23:21:34.086Z,4.47
2022-10-07T23:24:07.043Z,4.68
2022-10-07T23:26:35.426Z,4.88
2022-10-07T23:29:02.798Z,4.72
2022-10-07T23:31:31.788Z,5.00
2022-10-07T23:34:00.060Z,4.80
2022-10-07T23:36:27.272Z,4.60
2022-10-07T23:38:54.229Z,4.43
2022-10-07T23:41:26.044Z,4.13
2022-10-07T23:43:55.168Z,4.82
2022-10-07T23:46:23.854Z,4.22
2022-10-07T23:48:50.752Z,4.32
2022-10-07T23:51:19.979Z,4.05
2022-10-07T23:53:47.257Z,4.47
2022-10-07T23:56:14.186Z,4.65
2022-10-07T23:58:41.122Z,4.32
